createdAt,value
2023-03-11T00:01:23.788Z,2.30
2023-03-11T00:03:55.550Z,2.30
2023-03-11T00:06:27.235Z,2.20
2023-03-11T00:08:58.892Z,2.20
2023-03-11T00:11:30.757Z,2.20
2023-03-11T00:14:02.419Z,2.20
2023-03-11T00:16:34.210Z,2.10
2023-03-11T00:19:06.379Z,2.10
2023-03-11T00:21:38.057Z,2.20
2023-03-11T00:24:09.829Z,2.20
2023-03-11T00:26:41.597Z,2.10
2023-03-11T00:29:13.424Z,2.10
2023-03-11T00:31:45.146Z,2.10
2023-03-11T00:34:16.889Z,2.10
2023-03-11T00:36:48.692Z,2.10
2023-03-11T00:39:20.443Z,2.00
2023-03-11T00:41:52.727Z,2.10
2023-03-11T00:44:24.461Z,2.10
2023-03-11T00:46:56.217Z,2.20
2023-03-11T00:49:27.992Z,2.20
2023-03-11T00:51:59.699Z,2.20
2023-03-11T00:54:31.484Z,2.30
2023-03-11T00:57:03.292Z,2.30
2023-03-11T00:59:35.602Z,2.30
2023-03-11T01:02:07.485Z,2.40
2023-03-11T01:04:39.340Z,2.40
2023-03-11T01:07:11.469Z,2.40
2023-03-11T01:09:43.268Z,2.40
2023-03-11T01:12:14.974Z,2.40
2023-03-11T01:14:46.763Z,2.40
2023-03-11T01:17:18.445Z,2.40
2023-03-11T01:19:50.302Z,2.40
2023-03-11T01:22:22.109Z,2.40
2023-03-11T01:24:53.802Z,2.40
2023-03-11T01:27:25.596Z,2.30
2023-03-11T01:29:57.293Z,2.30
2023-03-11T01:32:29.089Z,2.20
2023-03-11T01:35:00.936Z,2.30
2023-03-11T01:37:32.787Z,2.30
2023-03-11T01:40:05.760Z,2.20
2023-03-11T01:42:37.437Z,2.20
2023-03-11T01:45:29.385Z,2.20
2023-03-11T01:48:01.115Z,2.10
2023-03-11T01:50:38.282Z,2.00
2023-03-11T01:53:11.107Z,2.00
2023-03-11T01:55:44.106Z,2.00
2023-03-11T01:58:20.765Z,1.90
2023-03-11T02:00:53.710Z,1.90
2023-03-11T02:03:33.177Z,1.90
2023-03-11T02:06:09.107Z,1.90
2023-03-11T02:08:42.274Z,2.00
2023-03-11T02:11:27.339Z,1.90
2023-03-11T02:14:02.119Z,2.00
2023-03-11T02:16:34.124Z,2.00
2023-03-11T02:19:31.708Z,2.00
2023-03-11T02:22:03.865Z,2.00
2023-03-11T02:24:59.873Z,1.90
2023-03-11T02:27:34.520Z,1.90
2023-03-11T02:30:07.170Z,1.90
2023-03-11T02:32:39.224Z,1.70
2023-03-11T02:35:11.194Z,1.70
2023-03-11T02:37:52.097Z,1.60
2023-03-11T02:40:23.894Z,1.60
2023-03-11T02:42:59.777Z,1.50
2023-03-11T02:45:32.154Z,1.40
2023-03-11T02:48:04.350Z,1.30
2023-03-11T02:50:37.280Z,1.30
2023-03-11T02:53:10.016Z,1.30
2023-03-11T02:55:41.743Z,1.20
2023-03-11T02:58:13.501Z,1.20
2023-03-11T03:00:45.226Z,1.20
2023-03-11T03:03:17.070Z,1.10
2023-03-11T03:05:48.800Z,1.10
2023-03-11T03:08:20.638Z,1.10
2023-03-11T03:10:53.565Z,1.10
2023-03-11T03:13:25.819Z,1.10
2023-03-11T03:15:57.985Z,1.00
2023-03-11T03:18:30.134Z,1.00
2023-03-11T03:21:01.910Z,0.90
2023-03-11T03:23:35.255Z,0.90
2023-03-11T03:26:07.288Z,0.90
2023-03-11T03:28:39.013Z,0.90
2023-03-11T03:31:11.197Z,0.90
2023-03-11T03:33:43.049Z,0.90
2023-03-11T03:36:15.629Z,0.80
2023-03-11T03:38:47.351Z,0.80
2023-03-11T03:41:19.040Z,0.80
2023-03-11T03:43:50.790Z,0.70
2023-03-11T03:46:23.201Z,0.70
2023-03-11T03:48:55.051Z,0.60
2023-03-11T03:51:26.793Z,0.60
2023-03-11T03:53:58.515Z,0.60
2023-03-11T03:56:30.282Z,0.60
2023-03-11T03:59:02.019Z,0.50
2023-03-11T04:01:33.693Z,0.50
2023-03-11T04:04:05.507Z,0.50
2023-03-11T04:06:37.304Z,0.40
2023-03-11T04:09:11.687Z,0.40
2023-03-11T04:11:43.499Z,0.30
2023-03-11T04:14:15.245Z,0.40
2023-03-11T04:16:46.896Z,0.40
2023-03-11T04:19:18.634Z,0.40
2023-03-11T04:21:51.860Z,0.40
2023-03-11T04:24:23.686Z,0.30
2023-03-11T04:26:55.520Z,0.30
2023-03-11T04:29:27.268Z,0.30
2023-03-11T04:31:58.990Z,0.20
2023-03-11T04:34:30.795Z,0.20
2023-03-11T04:37:02.540Z,0.10
2023-03-11T04:39:34.277Z,0.10
2023-03-11T04:42:06.165Z,0.20
2023-03-11T04:44:37.986Z,0.20
2023-03-11T04:47:09.837Z,0.10
2023-03-11T04:49:41.562Z,0.10
2023-03-11T04:52:13.486Z,0.00
2023-03-11T04:54:45.219Z,0.00
2023-03-11T04:57:16.962Z,0.00
2023-03-11T04:59:48.713Z,-0.10
2023-03-11T05:02:20.366Z,-0.10
2023-03-11T05:04:52.109Z,-0.20
2023-03-11T05:07:24.245Z,-0.20
2023-03-11T05:09:56.018Z,-0.20
2023-03-11T05:12:27.720Z,-0.20
2023-03-11T05:14:59.616Z,-0.20
2023-03-11T05:17:31.353Z,-0.10
2023-03-11T05:20:06.185Z,-0.10
2023-03-11T05:22:38.717Z,-0.10
2023-03-11T05:25:10.462Z,-0.10
2023-03-11T05:27:42.236Z,0.00
2023-03-11T05:30:15.237Z,0.00
2023-03-11T05:32:47.032Z,0.00
2023-03-11T05:35:19.122Z,-0.10
2023-03-11T05:37:51.077Z,-0.10
2023-03-11T05:40:22.874Z,-0.10
2023-03-11T05:42:54.769Z,-0.10
2023-03-11T05:45:26.646Z,-0.10
2023-03-11T05:47:58.465Z,0.00
2023-03-11T05:50:30.184Z,0.00
2023-03-11T05:53:01.927Z,-0.10
2023-03-11T05:55:33.609Z,-0.10
2023-03-11T05:58:05.398Z,-0.20
2023-03-11T06:00:37.129Z,-0.20
2023-03-11T06:03:09.089Z,-0.30
2023-03-11T06:05:48.537Z,-0.30
2023-03-11T06:08:20.633Z,-0.40
2023-03-11T06:10:52.311Z,-0.30
2023-03-11T06:13:24.197Z,-0.30
2023-03-11T06:15:56.025Z,-0.30
2023-03-11T06:18:28.108Z,-0.30
2023-03-11T06:21:01.513Z,-0.20
2023-03-11T06:23:33.318Z,-0.20
2023-03-11T06:26:05.996Z,-0.20
2023-03-11T06:28:37.748Z,-0.20
2023-03-11T06:31:11.474Z,-0.10
2023-03-11T06:33:43.713Z,-0.10
2023-03-11T06:36:17.374Z,-0.10
2023-03-11T06:38:52.323Z,0.00
2023-03-11T06:41:24.254Z,0.00
2023-03-11T06:43:59.670Z,0.00
2023-03-11T06:46:31.484Z,0.10
2023-03-11T06:49:03.460Z,0.10
2023-03-11T06:51:35.157Z,0.20
2023-03-11T06:54:07.218Z,0.20
2023-03-11T06:56:38.918Z,0.30
2023-03-11T06:59:11.732Z,0.40
2023-03-11T07:01:43.400Z,0.40
2023-03-11T07:04:15.180Z,0.50
2023-03-11T07:06:46.872Z,0.50
2023-03-11T07:09:18.620Z,0.50
2023-03-11T07:11:50.747Z,0.50
2023-03-11T07:14:23.198Z,0.60
2023-03-11T07:16:55.097Z,0.70
2023-03-11T07:19:26.940Z,0.80
2023-03-11T07:21:58.674Z,0.90
2023-03-11T07:24:30.376Z,1.00
2023-03-11T07:27:02.138Z,1.00
2023-03-11T07:29:33.865Z,1.20
2023-03-11T07:32:07.791Z,1.20
2023-03-11T07:34:39.489Z,1.00
2023-03-11T07:37:11.170Z,0.90
2023-03-11T07:39:43.098Z,0.90
2023-03-11T07:42:15.031Z,0.90
2023-03-11T07:44:46.720Z,0.90
2023-03-11T07:47:18.433Z,1.00
2023-03-11T07:49:50.106Z,0.90
2023-03-11T07:52:21.824Z,1.00
2023-03-11T07:54:54.227Z,1.00
2023-03-11T07:57:25.914Z,1.10
2023-03-11T07:59:57.697Z,1.00
2023-03-11T08:02:29.461Z,1.10
2023-03-11T08:05:01.322Z,1.10
2023-03-11T08:07:33.588Z,1.20
2023-03-11T08:10:05.612Z,1.20
2023-03-11T08:12:37.463Z,1.30
2023-03-11T08:15:09.922Z,1.30
2023-03-11T08:17:41.618Z,1.40
2023-03-11T08:20:13.592Z,1.40
2023-03-11T08:22:57.365Z,1.40
2023-03-11T08:25:30.220Z,1.40
2023-03-11T08:28:01.946Z,1.40
2023-03-11T08:30:34.215Z,1.50
2023-03-11T08:33:06.009Z,1.50
2023-03-11T08:35:37.866Z,1.60
2023-03-11T08:38:09.880Z,1.60
2023-03-11T08:40:41.723Z,1.50
2023-03-11T08:43:14.318Z,1.60
2023-03-11T08:45:46.135Z,1.70
2023-03-11T08:48:18.057Z,1.80
2023-03-11T08:50:54.221Z,1.90
2023-03-11T08:53:26.444Z,2.00
2023-03-11T08:55:58.151Z,2.20
2023-03-11T08:58:30.111Z,2.20
2023-03-11T09:01:02.221Z,2.40
2023-03-11T09:03:35.598Z,2.40
2023-03-11T09:06:11.649Z,2.60
2023-03-11T09:08:44.971Z,2.70
2023-03-11T09:11:18.794Z,2.50
2023-03-11T09:13:50.821Z,2.50
2023-03-11T09:16:23.508Z,2.40
2023-03-11T09:18:55.532Z,2.50
2023-03-11T09:21:27.299Z,2.70
2023-03-11T09:23:59.883Z,3.00
2023-03-11T09:26:32.256Z,3.30
2023-03-11T09:29:03.948Z,3.60
2023-03-11T09:31:35.722Z,3.40
2023-03-11T09:34:07.466Z,3.40
2023-03-11T09:36:41.782Z,3.40
2023-03-11T09:39:13.629Z,3.30
2023-03-11T09:42:02.488Z,3.40
2023-03-11T09:44:53.294Z,3.50
2023-03-11T09:47:45.314Z,3.50
2023-03-11T09:50:46.436Z,3.40
2023-03-11T09:53:47.129Z,3.50
2023-03-11T09:56:21.660Z,3.40
2023-03-11T09:59:01.406Z,3.80
2023-03-11T10:01:47.962Z,5.40
2023-03-11T10:04:26.842Z,7.40
2023-03-11T10:07:01.245Z,8.80
2023-03-11T10:09:46.294Z,10.70
2023-03-11T10:12:48.995Z,12.50
2023-03-11T10:15:49.123Z,12.40
2023-03-11T10:18:35.818Z,11.70
2023-03-11T10:21:41.238Z,12.40
2023-03-11T10:24:47.962Z,12.30
2023-03-11T10:27:29.648Z,11.20
2023-03-11T10:30:28.752Z,9.70
2023-03-11T10:33:02.475Z,9.50
2023-03-11T10:35:40.338Z,9.40
2023-03-11T10:38:20.353Z,9.10
2023-03-11T10:40:56.337Z,10.20
2023-03-11T10:43:41.400Z,11.60
2023-03-11T10:46:21.216Z,13.20
2023-03-11T10:48:53.105Z,12.70
2023-03-11T10:51:35.379Z,13.50
2023-03-11T10:54:07.239Z,14.50
2023-03-11T10:56:40.982Z,15.10
2023-03-11T10:59:24.507Z,15.90
2023-03-11T11:02:20.707Z,16.30
2023-03-11T11:05:18.477Z,16.40
2023-03-11T11:07:55.086Z,16.00
2023-03-11T11:10:28.985Z,15.70
2023-03-11T11:13:12.610Z,14.20
2023-03-11T11:16:02.590Z,11.70
2023-03-11T11:18:45.518Z,9.20
2023-03-11T11:21:39.986Z,8.40
2023-03-11T11:24:28.042Z,8.50
2023-03-11T11:27:12.684Z,8.20
2023-03-11T11:29:45.167Z,8.20
2023-03-11T11:32:20.187Z,7.30
2023-03-11T11:35:00.114Z,7.20
2023-03-11T11:37:41.662Z,7.00
2023-03-11T11:40:16.835Z,6.60
2023-03-11T11:43:05.904Z,6.10
2023-03-11T11:45:40.814Z,5.80
2023-03-11T11:48:24.238Z,5.80
2023-03-11T11:51:01.306Z,5.70
2023-03-11T11:53:40.827Z,5.40
2023-03-11T11:56:13.320Z,5.40
2023-03-11T11:58:45.530Z,5.20
2023-03-11T12:01:29.417Z,5.20
2023-03-11T12:04:04.054Z,5.20
2023-03-11T12:06:40.982Z,5.20
2023-03-11T12:09:36.797Z,5.30
2023-03-11T12:12:42.405Z,5.60
2023-03-11T12:15:23.010Z,5.80
2023-03-11T12:18:01.410Z,5.80
2023-03-11T12:20:42.857Z,5.90
2023-03-11T12:23:34.528Z,5.90
2023-03-11T12:26:20.196Z,6.00
2023-03-11T12:29:22.650Z,6.10
2023-03-11T12:31:55.937Z,6.00
2023-03-11T12:34:29.546Z,5.90
2023-03-11T12:37:05.397Z,5.50
2023-03-11T12:39:37.120Z,5.40
2023-03-11T12:42:11.658Z,5.40
2023-03-11T12:44:44.440Z,5.60
2023-03-11T12:47:24.324Z,5.90
2023-03-11T12:50:16.685Z,6.20
2023-03-11T12:52:53.583Z,6.50
2023-03-11T12:55:31.150Z,6.60
2023-03-11T12:58:37.348Z,6.50
2023-03-11T13:01:22.148Z,6.20
2023-03-11T13:04:17.206Z,6.20
2023-03-11T13:07:33.133Z,6.20
2023-03-11T13:10:25.109Z,6.50
2023-03-11T13:12:57.534Z,6.60
2023-03-11T13:15:34.720Z,6.70
2023-03-11T13:18:26.419Z,6.90
2023-03-11T13:21:02.559Z,6.90
2023-03-11T13:23:40.364Z,6.80
2023-03-11T13:26:36.218Z,6.70
2023-03-11T13:29:47.373Z,6.80
2023-03-11T13:32:31.060Z,6.90
2023-03-11T13:35:41.547Z,7.20
2023-03-11T13:38:20.637Z,7.30
2023-03-11T13:40:53.096Z,7.30
2023-03-11T13:43:26.358Z,7.10
2023-03-11T13:46:05.520Z,7.10
2023-03-11T13:48:45.213Z,7.10
2023-03-11T13:51:20.043Z,7.00
2023-03-11T13:54:06.279Z,6.70
2023-03-11T13:56:45.182Z,6.40
2023-03-11T13:59:31.450Z,6.00
2023-03-11T14:02:29.346Z,6.00
2023-03-11T14:05:13.629Z,6.20
2023-03-11T14:07:45.488Z,6.30
2023-03-11T14:10:21.466Z,6.30
2023-03-11T14:13:06.099Z,6.10
2023-03-11T14:15:45.144Z,6.10
2023-03-11T14:18:50.203Z,5.90
2023-03-11T14:21:23.167Z,5.80
2023-03-11T14:23:55.782Z,5.90
2023-03-11T14:26:34.954Z,5.90
2023-03-11T14:29:17.629Z,5.90
2023-03-11T14:31:49.384Z,5.80
2023-03-11T14:34:23.295Z,5.70
2023-03-11T14:36:57.711Z,5.70
2023-03-11T14:39:37.885Z,5.70
2023-03-11T14:42:29.403Z,5.80
2023-03-11T14:45:07.868Z,6.00
2023-03-11T14:47:41.689Z,6.00
2023-03-11T14:50:25.783Z,5.90
2023-03-11T14:53:12.501Z,5.90
2023-03-11T14:56:03.831Z,6.00
2023-03-11T14:58:40.351Z,6.00
2023-03-11T15:01:21.721Z,6.00
2023-03-11T15:04:27.405Z,6.10
2023-03-11T15:07:00.272Z,6.10
2023-03-11T15:09:32.636Z,6.10
2023-03-11T15:12:05.149Z,6.30
2023-03-11T15:14:49.680Z,6.40
2023-03-11T15:17:33.999Z,6.40
2023-03-11T15:20:25.105Z,6.60
2023-03-11T15:23:03.104Z,6.60
2023-03-11T15:25:38.372Z,6.50
2023-03-11T15:28:29.526Z,6.40
2023-03-11T15:31:22.491Z,6.30
2023-03-11T15:33:56.671Z,6.30
2023-03-11T15:36:30.372Z,6.30
2023-03-11T15:39:25.206Z,6.20
2023-03-11T15:42:19.590Z,6.20
2023-03-11T15:45:16.738Z,6.20
2023-03-11T15:47:50.701Z,6.00
2023-03-11T15:50:40.113Z,5.90
2023-03-11T15:53:14.974Z,5.80
2023-03-11T15:55:47.539Z,5.70
2023-03-11T15:58:20.787Z,5.70
2023-03-11T16:00:56.154Z,5.70
2023-03-11T16:03:30.214Z,5.70
2023-03-11T16:06:02.999Z,5.60
2023-03-11T16:08:34.734Z,5.50
2023-03-11T16:11:06.823Z,5.20
2023-03-11T16:13:38.755Z,5.20
2023-03-11T16:16:17.159Z,5.20
2023-03-11T16:18:49.053Z,5.10
2023-03-11T16:21:23.581Z,5.00
2023-03-11T16:23:55.300Z,4.90
2023-03-11T16:26:27.061Z,4.90
2023-03-11T16:29:09.089Z,4.80
2023-03-11T16:31:44.593Z,4.80
2023-03-11T16:34:16.358Z,4.80
2023-03-11T16:36:48.061Z,4.70
2023-03-11T16:39:19.775Z,4.80
2023-03-11T16:41:51.471Z,4.80
2023-03-11T16:44:23.194Z,4.70
2023-03-11T16:46:55.153Z,4.70
2023-03-11T16:49:26.974Z,4.60
2023-03-11T16:51:58.772Z,4.60
2023-03-11T16:54:30.597Z,4.50
2023-03-11T16:57:03.033Z,4.40
2023-03-11T16:59:34.805Z,4.40
2023-03-11T17:02:06.936Z,4.40
2023-03-11T17:04:38.830Z,4.40
2023-03-11T17:07:11.014Z,4.30
2023-03-11T17:09:42.757Z,4.30
2023-03-11T17:12:16.610Z,4.20
2023-03-11T17:14:48.284Z,4.10
2023-03-11T17:17:21.327Z,4.10
2023-03-11T17:19:53.029Z,4.10
2023-03-11T17:22:24.828Z,4.00
2023-03-11T17:24:56.507Z,3.90
2023-03-11T17:27:32.301Z,3.90
2023-03-11T17:30:07.380Z,3.80
2023-03-11T17:32:39.143Z,3.80
2023-03-11T17:35:11.008Z,3.80
2023-03-11T17:37:42.683Z,3.70
2023-03-11T17:40:14.395Z,3.60
2023-03-11T17:42:46.040Z,3.60
2023-03-11T17:45:17.757Z,3.50
2023-03-11T17:47:49.494Z,3.40
2023-03-11T17:50:21.767Z,3.30
2023-03-11T17:52:53.625Z,3.30
2023-03-11T17:55:26.281Z,3.20
2023-03-11T17:57:58.433Z,3.10
2023-03-11T18:00:30.228Z,3.00
2023-03-11T18:03:02.011Z,2.90
2023-03-11T18:05:33.766Z,2.80
2023-03-11T18:08:05.611Z,2.70
2023-03-11T18:10:37.305Z,2.60
2023-03-11T18:13:09.056Z,2.50
2023-03-11T18:15:40.850Z,2.50
2023-03-11T18:18:12.896Z,2.40
2023-03-11T18:20:44.661Z,2.40
2023-03-11T18:23:16.356Z,2.30
2023-03-11T18:25:52.186Z,2.30
2023-03-11T18:28:23.887Z,2.20
2023-03-11T18:30:55.654Z,2.10
2023-03-11T18:33:27.331Z,2.10
2023-03-11T18:35:59.062Z,2.00
2023-03-11T18:38:30.741Z,2.00
2023-03-11T18:41:02.414Z,2.00
2023-03-11T18:43:34.490Z,1.90
2023-03-11T18:46:11.208Z,1.90
2023-03-11T18:48:42.997Z,1.80
2023-03-11T18:51:15.362Z,1.70
2023-03-11T18:53:47.050Z,1.70
2023-03-11T18:56:19.470Z,1.60
2023-03-11T18:58:51.225Z,1.60
2023-03-11T19:01:23.341Z,1.50
2023-03-11T19:03:57.311Z,1.50
2023-03-11T19:06:29.451Z,1.40
2023-03-11T19:09:01.171Z,1.40
2023-03-11T19:11:33.303Z,1.30
2023-03-11T19:14:04.991Z,1.30
2023-03-11T19:16:36.673Z,1.30
2023-03-11T19:19:11.286Z,1.20
2023-03-11T19:21:44.010Z,1.20
2023-03-11T19:24:15.668Z,1.20
2023-03-11T19:26:47.415Z,1.20
2023-03-11T19:29:19.685Z,1.20
2023-03-11T19:31:51.420Z,1.10
2023-03-11T19:34:23.218Z,1.10
2023-03-11T19:36:54.942Z,1.00
2023-03-11T19:39:26.630Z,1.00
2023-03-11T19:41:58.949Z,1.00
2023-03-11T19:44:30.687Z,0.90
2023-03-11T19:47:02.439Z,0.90
2023-03-11T19:49:34.448Z,0.90
2023-03-11T19:52:09.675Z,0.80
2023-03-11T19:54:41.738Z,0.90
2023-03-11T19:57:13.509Z,0.90
2023-03-11T19:59:45.330Z,0.90
2023-03-11T20:02:17.264Z,0.90
2023-03-11T20:04:49.050Z,0.80
2023-03-11T20:07:20.848Z,0.80
2023-03-11T20:09:52.601Z,0.80
2023-03-11T20:12:24.643Z,0.80
2023-03-11T20:14:56.377Z,0.70
2023-03-11T20:17:28.081Z,0.70
2023-03-11T20:19:59.818Z,0.70
2023-03-11T20:22:31.532Z,0.60
2023-03-11T20:25:03.366Z,0.50
2023-03-11T20:27:35.150Z,0.50
2023-03-11T20:30:07.907Z,0.50
2023-03-11T20:32:39.801Z,0.50
2023-03-11T20:35:11.712Z,0.50
2023-03-11T20:37:44.398Z,0.40
2023-03-11T20:40:17.749Z,0.30
2023-03-11T20:42:49.555Z,0.30
2023-03-11T20:45:21.968Z,0.30
2023-03-11T20:47:54.139Z,0.30
2023-03-11T20:50:26.074Z,0.30
2023-03-11T20:52:57.757Z,0.30
2023-03-11T20:55:29.576Z,0.30
2023-03-11T20:58:01.293Z,0.30
2023-03-11T21:00:33.130Z,0.30
2023-03-11T21:03:05.026Z,0.30
2023-03-11T21:05:38.087Z,0.20
2023-03-11T21:08:10.166Z,0.20
2023-03-11T21:10:42.025Z,0.20
2023-03-11T21:13:14.018Z,0.10
2023-03-11T21:15:45.995Z,0.10
2023-03-11T21:18:17.900Z,0.10
2023-03-11T21:20:49.659Z,0.10
2023-03-11T21:23:21.400Z,0.10
2023-03-11T21:26:00.715Z,0.10
2023-03-11T21:28:34.534Z,0.10
2023-03-11T21:31:11.910Z,0.10
2023-03-11T21:33:44.285Z,0.10
2023-03-11T21:36:17.176Z,0.10
2023-03-11T21:38:50.156Z,0.10
2023-03-11T21:41:26.829Z,0.00
2023-03-11T21:43:58.743Z,0.00
2023-03-11T21:46:32.063Z,0.00
2023-03-11T21:49:04.066Z,0.00
2023-03-11T21:51:36.030Z,0.00
2023-03-11T21:54:07.786Z,0.00
2023-03-11T21:56:39.775Z,0.00
2023-03-11T21:59:11.619Z,-0.10
2023-03-11T22:01:43.533Z,-0.20
2023-03-11T22:04:15.584Z,-0.20
2023-03-11T22:06:47.462Z,-0.20
2023-03-11T22:09:19.189Z,-0.30
2023-03-11T22:11:51.160Z,-0.30
2023-03-11T22:14:24.080Z,-0.30
2023-03-11T22:16:56.236Z,-0.30
2023-03-11T22:19:28.063Z,-0.30
2023-03-11T22:21:59.895Z,-0.30
2023-03-11T22:24:31.638Z,-0.30
2023-03-11T22:27:03.526Z,-0.30
2023-03-11T22:29:35.262Z,-0.40
2023-03-11T22:32:07.025Z,-0.30
2023-03-11T22:34:38.856Z,-0.40
2023-03-11T22:37:10.688Z,-0.40
2023-03-11T22:39:42.713Z,-0.40
2023-03-11T22:42:14.612Z,-0.40
2023-03-11T22:44:46.324Z,-0.40
2023-03-11T22:47:18.067Z,-0.40
2023-03-11T22:49:49.815Z,-0.40
2023-03-11T22:52:21.749Z,-0.40
2023-03-11T22:54:53.675Z,-0.40
2023-03-11T22:57:25.478Z,-0.40
2023-03-11T22:59:57.171Z,-0.40
2023-03-11T23:02:28.946Z,-0.50
2023-03-11T23:05:00.701Z,-0.50
2023-03-11T23:07:32.528Z,-0.60
2023-03-11T23:10:05.747Z,-0.60
2023-03-11T23:12:37.857Z,-0.70
2023-03-11T23:15:14.119Z,-0.70
2023-03-11T23:17:45.943Z,-0.70
2023-03-11T23:20:18.025Z,-0.70
2023-03-11T23:22:49.797Z,-0.70
2023-03-11T23:25:21.613Z,-0.70
2023-03-11T23:27:53.449Z,-0.70
2023-03-11T23:30:25.264Z,-0.70
2023-03-11T23:32:57.947Z,-0.70
2023-03-11T23:35:30.250Z,-0.70
2023-03-11T23:38:02.053Z,-0.70
2023-03-11T23:40:33.880Z,-0.70
2023-03-11T23:43:05.705Z,-0.70
2023-03-11T23:45:37.480Z,-0.70
2023-03-11T23:48:09.186Z,-0.70
2023-03-11T23:50:46.199Z,-0.70
2023-03-11T23:53:21.265Z,-0.70
2023-03-11T23:55:53.322Z,-0.70
2023-03-11T23:58:25.270Z,-0.70
